Time;durP1;ratioP1;P1;durP2;ratioP2;P2;SDS_P1;SDS_P2;PMS_P1;PMS_P2;Temp;Humidity;BMP_temperature;BMP_pressure;BME280_temperature;BME280_humidity;BME280_pressure;Samples;Min_cycle;Max_cycle;Signal;HPM_P1;HPM_P2
2024/02/06 00:01:49;;;;;;;9.95;8.07;;;8.20;99.90;;;;;;5093449;28;20197;-60
2024/02/06 00:04:16;;;;;;;12.32;7.28;;;8.30;99.90;;;;;;5092965;28;20299;-59
2024/02/06 00:06:42;;;;;;;16.15;6.30;;;8.30;99.90;;;;;;5092656;28;20713;-60
2024/02/06 00:09:09;;;;;;;10.70;5.85;;;8.40;99.90;;;;;;5093048;28;20202;-61
2024/02/06 00:11:39;;;;;;;9.68;6.88;;;8.40;99.90;;;;;;5093017;28;20338;-60
2024/02/06 00:14:10;;;;;;;9.52;6.78;;;8.50;99.90;;;;;;5092953;28;20583;-60
2024/02/06 00:16:37;;;;;;;7.75;5.75;;;8.60;99.90;;;;;;5092833;28;20267;-62
2024/02/06 00:19:05;;;;;;;10.35;6.60;;;8.60;99.90;;;;;;5092387;28;20693;-59
2024/02/06 00:21:32;;;;;;;10.50;6.22;;;8.70;99.90;;;;;;5092852;28;20207;-59
2024/02/06 00:24:00;;;;;;;9.27;6.25;;;8.80;99.90;;;;;;5092932;28;20290;-59
2024/02/06 00:26:27;;;;;;;10.85;6.05;;;8.80;99.90;;;;;;5092865;28;20253;-60
2024/02/06 00:28:55;;;;;;;14.07;6.18;;;8.80;99.90;;;;;;5095146;28;20242;-61
2024/02/06 00:31:22;;;;;;;7.93;5.45;;;8.90;99.90;;;;;;5097063;28;20200;-60
2024/02/06 00:33:49;;;;;;;6.20;5.20;;;8.90;99.90;;;;;;5096979;28;20295;-60
2024/02/06 00:36:15;;;;;;;13.68;5.93;;;8.80;99.90;;;;;;5097234;28;20200;-59
2024/02/06 00:38:42;;;;;;;6.43;5.20;;;8.80;99.90;;;;;;5096628;28;20224;-61
2024/02/06 00:41:11;;;;;;;7.28;5.88;;;8.80;99.90;;;;;;5097127;28;20203;-62
2024/02/06 00:43:38;;;;;;;5.63;5.07;;;8.80;99.90;;;;;;5096930;28;20249;-62
2024/02/06 00:46:06;;;;;;;7.13;5.82;;;8.80;99.90;;;;;;5098715;28;20207;-60
2024/02/06 00:48:33;;;;;;;8.43;6.35;;;8.70;99.90;;;;;;5098880;28;20213;-61
2024/02/06 00:50:59;;;;;;;6.75;5.30;;;8.70;99.90;;;;;;5098918;28;20227;-60
2024/02/06 00:53:27;;;;;;;9.75;5.40;;;8.60;99.90;;;;;;5098894;28;20207;-61
2024/02/06 00:55:53;;;;;;;9.00;5.75;;;8.60;99.90;;;;;;5098982;28;20568;-60
2024/02/06 00:58:20;;;;;;;9.13;5.60;;;8.50;99.90;;;;;;5098837;28;20224;-61
2024/02/06 01:00:47;;;;;;;6.03;5.43;;;8.50;99.90;;;;;;5099204;28;20204;-59
2024/02/06 01:03:16;;;;;;;6.45;4.80;;;8.50;99.90;;;;;;5098681;28;20291;-60
2024/02/06 01:05:43;;;;;;;5.75;4.05;;;8.50;99.90;;;;;;5098208;28;20204;-61
2024/02/06 01:08:09;;;;;;;7.22;4.82;;;8.50;99.90;;;;;;5098039;28;20701;-61
2024/02/06 01:10:36;;;;;;;8.15;4.78;;;8.50;99.90;;;;;;5097976;28;20207;-60
2024/02/06 01:13:03;;;;;;;6.65;4.70;;;8.60;99.90;;;;;;5097886;28;20200;-60
2024/02/06 01:15:29;;;;;;;5.28;4.78;;;8.60;99.90;;;;;;5098229;28;20201;-61
2024/02/06 01:17:57;;;;;;;5.68;4.70;;;8.60;99.90;;;;;;5096956;28;20220;-60
2024/02/06 01:20:25;;;;;;;5.82;4.93;;;8.60;99.90;;;;;;5096369;28;20200;-60
2024/02/06 01:22:51;;;;;;;5.28;4.40;;;8.70;99.90;;;;;;5096274;28;20208;-60
2024/02/06 01:25:18;;;;;;;6.65;4.88;;;8.70;99.90;;;;;;5095634;28;20204;-60
2024/02/06 01:27:45;;;;;;;5.55;4.75;;;8.70;99.90;;;;;;5095878;28;20224;-60
2024/02/06 01:30:12;;;;;;;6.55;5.45;;;8.70;99.90;;;;;;5095858;28;20207;-60
2024/02/06 01:32:39;;;;;;;7.43;5.68;;;8.70;99.90;;;;;;5095553;28;20208;-60
2024/02/06 01:35:08;;;;;;;6.32;5.72;;;8.70;99.90;;;;;;5095943;28;20204;-59
2024/02/06 01:37:36;;;;;;;6.68;5.70;;;8.70;99.90;;;;;;5095531;28;20220;-60
2024/02/06 01:40:03;;;;;;;6.85;5.43;;;8.70;99.90;;;;;;5094872;28;20674;-59
2024/02/06 01:42:30;;;;;;;7.78;5.93;;;8.70;99.90;;;;;;5095755;28;20257;-60
2024/02/06 01:44:57;;;;;;;10.15;6.25;;;8.80;99.90;;;;;;5095652;28;20204;-59
2024/02/06 01:47:24;;;;;;;8.90;6.07;;;8.80;99.90;;;;;;5095607;28;20223;-60
2024/02/06 01:49:51;;;;;;;6.80;6.13;;;8.80;99.90;;;;;;5095650;28;20203;-59
2024/02/06 01:52:18;;;;;;;6.95;6.25;;;8.80;99.90;;;;;;5095465;28;20599;-60
2024/02/06 01:54:47;;;;;;;7.85;7.13;;;8.80;99.90;;;;;;5095680;28;20200;-59
2024/02/06 01:57:14;;;;;;;7.03;6.25;;;8.80;99.90;;;;;;5095699;28;20290;-60
2024/02/06 01:59:41;;;;;;;8.75;6.97;;;8.70;99.90;;;;;;5095381;28;20216;-59
2024/02/06 02:02:08;;;;;;;7.18;6.47;;;8.70;99.90;;;;;;5095557;28;20196;-59
2024/02/06 02:04:35;;;;;;;8.00;7.20;;;8.70;99.90;;;;;;5096198;28;20548;-60
2024/02/06 02:07:02;;;;;;;9.93;7.05;;;8.70;99.90;;;;;;5095512;28;20227;-60
2024/02/06 02:09:29;;;;;;;8.68;6.53;;;8.70;99.90;;;;;;5095389;28;20654;-60
2024/02/06 02:11:57;;;;;;;7.70;6.57;;;8.70;99.90;;;;;;5094974;28;20208;-60
2024/02/06 02:14:24;;;;;;;11.30;6.82;;;8.70;99.90;;;;;;5094816;28;20746;-60
2024/02/06 02:16:51;;;;;;;6.88;5.90;;;8.80;99.90;;;;;;5094932;28;20200;-61
2024/02/06 02:19:17;;;;;;;10.85;7.82;;;8.80;99.90;;;;;;5094998;28;20231;-60
2024/02/06 02:21:45;;;;;;;8.15;7.35;;;8.80;99.90;;;;;;5094839;28;20200;-61
2024/02/06 02:24:12;;;;;;;9.20;7.70;;;8.80;99.90;;;;;;5094953;28;20198;-60
2024/02/06 02:26:39;;;;;;;8.07;6.65;;;8.90;99.90;;;;;;5095547;28;20201;-59
2024/02/06 02:29:06;;;;;;;9.98;7.50;;;8.90;99.90;;;;;;5094823;28;20200;-60
2024/02/06 02:31:39;;;;;;;9.05;7.63;;;8.90;99.90;;;;;;5094358;28;20197;-61
2024/02/06 02:34:07;;;;;;;13.40;7.43;;;8.90;99.90;;;;;;5094573;28;20184;-60
2024/02/06 02:36:34;;;;;;;11.40;6.82;;;8.90;99.90;;;;;;5094725;28;20568;-60
2024/02/06 02:39:02;;;;;;;9.10;7.03;;;8.90;99.90;;;;;;5094130;28;20242;-59
2024/02/06 02:41:29;;;;;;;8.02;7.22;;;8.90;99.90;;;;;;5094583;28;20196;-60
2024/02/06 02:43:56;;;;;;;9.95;7.00;;;9.00;99.90;;;;;;5094269;28;20204;-61
2024/02/06 02:46:22;;;;;;;7.90;6.63;;;9.00;99.90;;;;;;5094104;28;20200;-61
2024/02/06 02:48:49;;;;;;;9.15;6.57;;;9.00;99.90;;;;;;5094264;28;20216;-60
2024/02/06 02:51:16;;;;;;;7.15;6.40;;;9.00;99.90;;;;;;5093892;28;20200;-59
2024/02/06 02:53:43;;;;;;;10.95;7.22;;;9.00;99.90;;;;;;5094067;28;20568;-58
2024/02/06 02:56:11;;;;;;;7.45;6.85;;;9.00;99.90;;;;;;5094543;28;20204;-60
2024/02/06 02:58:37;;;;;;;8.93;7.13;;;9.10;99.90;;;;;;5094108;28;20235;-59
2024/02/06 03:01:04;;;;;;;7.00;6.30;;;9.10;99.90;;;;;;5093836;28;20700;-59
2024/02/06 03:03:31;;;;;;;8.95;7.00;;;9.10;99.90;;;;;;5093930;28;20545;-61
2024/02/06 03:05:58;;;;;;;9.85;7.10;;;9.10;99.90;;;;;;5093938;28;20196;-61
2024/02/06 03:08:25;;;;;;;7.32;6.63;;;9.10;99.90;;;;;;5094048;28;20248;-60
2024/02/06 03:10:52;;;;;;;9.07;7.93;;;9.10;99.90;;;;;;5093877;28;20207;-60
2024/02/06 03:13:21;;;;;;;7.30;6.60;;;9.10;99.90;;;;;;5093954;28;20204;-60
2024/02/06 03:15:48;;;;;;;10.13;7.40;;;9.10;99.90;;;;;;5094038;28;20208;-61
2024/02/06 03:18:15;;;;;;;10.43;6.68;;;9.10;99.90;;;;;;5093241;28;20235;-61
2024/02/06 03:20:42;;;;;;;9.50;5.72;;;9.10;99.90;;;;;;5093558;28;20207;-59
2024/02/06 03:23:09;;;;;;;7.75;6.30;;;9.10;99.90;;;;;;5093369;28;20696;-60
2024/02/06 03:25:35;;;;;;;10.20;6.68;;;9.20;99.90;;;;;;5093885;28;20257;-59
2024/02/06 03:28:03;;;;;;;7.05;6.25;;;9.20;99.90;;;;;;5093706;28;20228;-59
2024/02/06 03:30:32;;;;;;;10.45;6.10;;;9.10;99.90;;;;;;5124353;22;20232;-64
2024/02/06 03:32:58;;;;;;;7.47;6.28;;;9.20;99.90;;;;;;5109064;28;20295;-64
2024/02/06 03:35:25;;;;;;;6.55;5.72;;;9.20;99.90;;;;;;5109244;28;20196;-63
2024/02/06 03:37:52;;;;;;;8.27;6.50;;;9.20;99.90;;;;;;5108953;28;20200;-64
2024/02/06 03:40:19;;;;;;;7.88;5.93;;;9.10;99.90;;;;;;5104418;28;20224;-63
2024/02/06 03:42:46;;;;;;;10.23;6.47;;;9.10;99.90;;;;;;5102973;28;20200;-64
2024/02/06 03:45:12;;;;;;;8.38;6.88;;;9.10;99.90;;;;;;5094633;28;20200;-65
2024/02/06 03:47:40;;;;;;;8.93;6.53;;;9.10;99.90;;;;;;5098484;28;20207;-63
2024/02/06 03:50:08;;;;;;;8.45;6.60;;;9.10;99.90;;;;;;5097668;28;20216;-64
2024/02/06 03:52:35;;;;;;;7.35;6.00;;;9.10;99.90;;;;;;5098664;28;20200;-64
2024/02/06 03:55:02;;;;;;;6.68;6.07;;;9.10;99.90;;;;;;5095090;28;20204;-63
2024/02/06 03:57:29;;;;;;;7.70;5.95;;;9.10;99.90;;;;;;5094604;28;20219;-64
2024/02/06 03:59:56;;;;;;;7.55;6.22;;;9.10;99.90;;;;;;5094394;28;20224;-65
2024/02/06 04:02:22;;;;;;;7.90;7.20;;;9.00;99.90;;;;;;5094567;28;20211;-64
2024/02/06 04:04:51;;;;;;;6.95;6.20;;;9.00;99.90;;;;;;5094043;28;20214;-64
2024/02/06 04:07:18;;;;;;;7.45;6.22;;;9.00;99.90;;;;;;5094537;28;20200;-64
2024/02/06 04:13:08;;;;;;;8.65;5.72;;;9.00;99.90;;;;;;5091954;28;20608;-65
2024/02/06 04:15:35;;;;;;;8.38;7.53;;;9.00;99.90;;;;;;5091863;28;20210;-63
2024/02/06 04:18:04;;;;;;;7.50;6.35;;;9.00;99.90;;;;;;5092555;28;20205;-64
2024/02/06 04:20:31;;;;;;;7.43;6.75;;;9.00;99.90;;;;;;5092753;28;20220;-64
2024/02/06 04:22:59;;;;;;;5.82;5.30;;;9.00;99.90;;;;;;5092139;28;20204;-63
2024/02/06 04:25:25;;;;;;;8.07;6.40;;;9.00;99.90;;;;;;5092304;28;20196;-65
2024/02/06 04:27:52;;;;;;;7.18;6.00;;;9.00;99.90;;;;;;5092364;28;20207;-64
2024/02/06 04:30:20;;;;;;;7.80;6.55;;;9.00;99.90;;;;;;5091800;28;20718;-64
2024/02/06 04:32:48;;;;;;;8.02;6.50;;;9.00;99.90;;;;;;5092452;28;20221;-63
2024/02/06 04:35:15;;;;;;;7.75;6.70;;;9.00;99.90;;;;;;5092398;28;20273;-64
2024/02/06 04:37:42;;;;;;;8.20;6.28;;;9.00;99.90;;;;;;5092355;28;20200;-64
2024/02/06 04:40:09;;;;;;;7.20;6.47;;;9.00;99.90;;;;;;5093917;28;20227;-64
2024/02/06 04:42:36;;;;;;;8.23;6.28;;;9.10;99.90;;;;;;5097097;28;20197;-64
2024/02/06 04:45:03;;;;;;;8.80;6.55;;;9.10;99.90;;;;;;5092198;28;20204;-64
2024/02/06 04:47:32;;;;;;;7.40;6.47;;;9.10;99.90;;;;;;5092130;28;20196;-66
2024/02/06 04:49:59;;;;;;;7.32;6.18;;;9.10;99.90;;;;;;5091318;28;20731;-64
2024/02/06 04:52:26;;;;;;;7.10;5.80;;;9.10;99.90;;;;;;5096032;28;20217;-65
2024/02/06 04:54:53;;;;;;;9.05;6.80;;;9.10;99.90;;;;;;5092408;28;20270;-64
2024/02/06 04:57:19;;;;;;;7.90;7.03;;;9.20;99.90;;;;;;5093700;28;20205;-64
2024/02/06 04:59:46;;;;;;;7.35;5.65;;;9.10;99.90;;;;;;5094650;28;20230;-65
2024/02/06 05:02:13;;;;;;;7.40;6.60;;;9.10;99.90;;;;;;5091832;28;20200;-63
2024/02/06 05:04:41;;;;;;;7.30;5.88;;;9.10;99.90;;;;;;5095307;28;20212;-64
2024/02/06 05:07:08;;;;;;;5.43;4.93;;;9.20;99.90;;;;;;5093412;28;20200;-63
2024/02/06 05:09:35;;;;;;;6.75;6.05;;;9.20;99.90;;;;;;5091700;28;20259;-64
2024/02/06 05:12:02;;;;;;;6.43;5.80;;;9.20;99.90;;;;;;5091299;28;20221;-64
2024/02/06 05:14:29;;;;;;;8.55;5.78;;;9.20;99.90;;;;;;5090996;28;20701;-64
2024/02/06 05:16:56;;;;;;;7.63;6.18;;;9.20;99.90;;;;;;5091773;28;20208;-63
2024/02/06 05:19:23;;;;;;;7.22;5.88;;;9.20;99.90;;;;;;5091410;28;20222;-65
2024/02/06 05:21:51;;;;;;;7.30;5.75;;;9.20;99.90;;;;;;5091036;28;20574;-64
2024/02/06 05:24:17;;;;;;;7.57;6.72;;;9.20;99.90;;;;;;5078554;28;20205;-64
2024/02/06 05:26:44;;;;;;;6.38;5.78;;;9.20;99.90;;;;;;5077496;28;20208;-64
2024/02/06 05:29:11;;;;;;;7.05;5.95;;;9.20;99.90;;;;;;5077590;28;20228;-65
2024/02/06 05:31:38;;;;;;;6.78;5.25;;;9.20;99.90;;;;;;5076987;28;20231;-64
2024/02/06 05:34:04;;;;;;;6.38;5.63;;;9.20;99.90;;;;;;5077050;28;20201;-64
2024/02/06 05:36:31;;;;;;;7.50;6.25;;;9.20;99.90;;;;;;5076775;28;20209;-64
2024/02/06 05:38:59;;;;;;;6.00;5.35;;;9.20;99.90;;;;;;5077352;28;20197;-63
2024/02/06 05:41:27;;;;;;;6.95;5.57;;;9.20;99.90;;;;;;5077055;28;20232;-64
2024/02/06 05:43:54;;;;;;;6.43;5.82;;;9.20;99.90;;;;;;5090415;28;20211;-64
2024/02/06 05:46:20;;;;;;;7.50;5.22;;;9.20;99.90;;;;;;5092170;28;20229;-64
2024/02/06 05:48:47;;;;;;;9.25;6.32;;;9.30;99.90;;;;;;5085302;28;20205;-62
2024/02/06 05:51:14;;;;;;;7.83;6.10;;;9.30;99.90;;;;;;5077295;28;20268;-63
2024/02/06 05:53:41;;;;;;;8.00;5.80;;;9.30;99.90;;;;;;5080326;28;20448;-64
2024/02/06 05:56:09;;;;;;;9.40;6.75;;;9.30;99.90;;;;;;5076898;28;20223;-64
2024/02/06 05:58:38;;;;;;;7.45;6.70;;;9.30;99.90;;;;;;5076908;28;20205;-63
2024/02/06 06:01:05;;;;;;;8.27;5.90;;;9.40;99.90;;;;;;5076793;28;20247;-64
2024/02/06 06:03:32;;;;;;;6.75;6.05;;;9.40;99.90;;;;;;5076939;28;20259;-63
2024/02/06 06:05:58;;;;;;;9.80;6.37;;;9.40;99.90;;;;;;5076720;28;20207;-63
2024/02/06 06:08:25;;;;;;;6.78;6.18;;;9.40;99.90;;;;;;5077503;28;20819;-62
2024/02/06 06:10:52;;;;;;;6.77;6.17;;;9.40;99.90;;;;;;5079033;28;20587;-64
2024/02/06 06:13:20;;;;;;;6.60;5.63;;;9.40;99.90;;;;;;5078626;28;20460;-63
2024/02/06 06:15:47;;;;;;;7.80;6.32;;;9.40;99.90;;;;;;5077873;28;20691;-64
2024/02/06 06:18:14;;;;;;;9.77;6.80;;;9.40;99.90;;;;;;5077251;28;20219;-63
2024/02/06 06:20:41;;;;;;;8.85;6.15;;;9.40;99.90;;;;;;5076769;28;20221;-64
2024/02/06 06:23:07;;;;;;;8.25;6.75;;;9.40;99.90;;;;;;5076184;28;20577;-64
2024/02/06 06:25:34;;;;;;;11.05;7.20;;;9.40;99.90;;;;;;5077165;28;20250;-64
2024/02/06 06:28:02;;;;;;;7.13;6.13;;;9.40;99.90;;;;;;5076794;28;20201;-65
2024/02/06 06:30:30;;;;;;;9.07;5.20;;;9.40;99.90;;;;;;5077760;28;20228;-64
2024/02/06 06:32:58;;;;;;;8.40;5.80;;;9.40;99.90;;;;;;5077019;28;20225;-62
2024/02/06 06:35:24;;;;;;;10.45;5.50;;;9.50;99.90;;;;;;5076296;28;20201;-64
2024/02/06 06:37:51;;;;;;;10.07;6.10;;;9.50;99.90;;;;;;5076451;28;20245;-65
2024/02/06 06:40:18;;;;;;;7.35;5.90;;;9.50;99.90;;;;;;5077547;28;20225;-63
2024/02/06 06:42:45;;;;;;;9.55;6.15;;;9.50;99.90;;;;;;5076594;28;20208;-64
2024/02/06 06:45:12;;;;;;;7.30;5.90;;;9.50;99.90;;;;;;5077286;28;20212;-65
2024/02/06 06:47:40;;;;;;;7.68;5.75;;;9.50;99.90;;;;;;5077063;28;20440;-65
2024/02/06 06:50:08;;;;;;;6.78;5.90;;;9.50;99.90;;;;;;5077201;28;20316;-65
2024/02/06 06:52:34;;;;;;;6.53;5.83;;;9.50;99.90;;;;;;5076933;28;20231;-63
2024/02/06 06:55:03;;;;;;;9.00;6.40;;;9.40;99.90;;;;;;5077059;28;20821;-64
2024/02/06 06:57:29;;;;;;;8.15;5.60;;;9.40;99.90;;;;;;5077139;28;20292;-65
2024/02/06 06:59:56;;;;;;;8.57;6.03;;;9.40;99.90;;;;;;5076785;28;20236;-64
2024/02/06 07:02:23;;;;;;;6.32;5.10;;;9.40;99.90;;;;;;5076533;28;20193;-66
2024/02/06 07:04:51;;;;;;;6.95;5.78;;;9.30;99.90;;;;;;5076374;28;20211;-64
2024/02/06 07:07:18;;;;;;;7.00;5.40;;;9.30;99.90;;;;;;5076830;28;20220;-63
2024/02/06 07:09:45;;;;;;;6.93;5.35;;;9.30;99.90;;;;;;5076583;28;20595;-65
2024/02/06 07:12:11;;;;;;;7.50;6.80;;;9.30;99.90;;;;;;5076354;28;20225;-64
2024/02/06 07:14:38;;;;;;;7.70;5.65;;;9.30;99.90;;;;;;5076724;28;20205;-64
2024/02/06 07:17:06;;;;;;;7.28;5.70;;;9.20;99.90;;;;;;5076585;28;20197;-64
2024/02/06 07:19:33;;;;;;;7.63;6.75;;;9.20;99.90;;;;;;5076206;28;20220;-63
2024/02/06 07:22:01;;;;;;;6.50;5.00;;;9.20;99.90;;;;;;5075671;28;20201;-62
2024/02/06 07:24:28;;;;;;;6.68;6.07;;;9.30;99.90;;;;;;5075432;28;20694;-64
2024/02/06 07:26:55;;;;;;;7.28;6.05;;;9.30;99.90;;;;;;5076171;28;20571;-61
2024/02/06 07:29:22;;;;;;;6.30;5.35;;;9.30;99.90;;;;;;5077070;28;20221;-63
2024/02/06 07:31:49;;;;;;;5.93;5.03;;;9.30;99.90;;;;;;5076389;28;20208;-62
2024/02/06 07:34:18;;;;;;;5.82;5.28;;;9.30;99.90;;;;;;5075561;28;20544;-63
2024/02/06 07:36:45;;;;;;;7.07;5.75;;;9.40;99.90;;;;;;5075955;28;20204;-64
2024/02/06 07:39:13;;;;;;;6.10;5.60;;;9.30;99.90;;;;;;5078059;28;20203;-62
2024/02/06 07:41:40;;;;;;;6.05;5.43;;;9.30;99.90;;;;;;5080627;28;20727;-64
2024/02/06 07:44:07;;;;;;;5.65;5.15;;;9.40;99.90;;;;;;5076077;28;20201;-63
2024/02/06 07:46:34;;;;;;;9.18;6.05;;;9.30;99.90;;;;;;5076837;28;20201;-64
2024/02/06 07:49:00;;;;;;;6.95;5.75;;;9.30;99.90;;;;;;5077013;28;20228;-64
2024/02/06 07:51:27;;;;;;;7.60;6.18;;;9.30;99.90;;;;;;5076503;28;20205;-63
2024/02/06 07:53:54;;;;;;;6.40;5.53;;;9.30;99.90;;;;;;5076156;28;20227;-63
2024/02/06 07:56:23;;;;;;;7.68;6.40;;;9.30;99.90;;;;;;5076796;28;20200;-64
2024/02/06 07:58:49;;;;;;;6.85;5.95;;;9.40;99.90;;;;;;5076743;28;20293;-64
2024/02/06 08:01:16;;;;;;;6.80;6.20;;;9.40;99.90;;;;;;5076546;28;20236;-64
2024/02/06 08:03:43;;;;;;;6.00;5.43;;;9.40;99.90;;;;;;5076670;28;20209;-64
2024/02/06 08:06:10;;;;;;;5.73;5.20;;;9.40;99.90;;;;;;5077116;28;20452;-64
2024/02/06 08:08:37;;;;;;;6.13;5.50;;;9.40;99.90;;;;;;5075467;28;20886;-64
2024/02/06 08:11:04;;;;;;;5.67;5.13;;;9.30;99.90;;;;;;5074604;28;20832;-63
2024/02/06 08:13:32;;;;;;;5.15;4.65;;;9.30;99.90;;;;;;5075921;28;20463;-64
2024/02/06 08:15:59;;;;;;;6.82;4.75;;;9.30;99.90;;;;;;5074999;28;20197;-64
2024/02/06 08:18:26;;;;;;;5.50;5.00;;;9.30;99.90;;;;;;5075924;28;20205;-63
2024/02/06 08:20:53;;;;;;;6.10;4.95;;;9.40;99.90;;;;;;5075197;28;20459;-65
2024/02/06 08:23:20;;;;;;;5.32;4.82;;;9.40;99.90;;;;;;5075161;28;20192;-64
2024/02/06 08:25:48;;;;;;;6.13;5.30;;;9.40;99.90;;;;;;5074837;28;20636;-63
2024/02/06 08:28:15;;;;;;;5.53;4.65;;;9.40;99.90;;;;;;5075922;28;20453;-64
2024/02/06 08:30:47;;;;;;;4.63;4.23;;;9.50;99.90;;;;;;5074905;28;20232;-63
2024/02/06 08:33:14;;;;;;;4.97;4.57;;;9.50;99.90;;;;;;5074150;28;20463;-65
2024/02/06 08:35:42;;;;;;;4.35;3.92;;;9.50;99.90;;;;;;5076718;28;20443;-63
2024/02/06 08:38:08;;;;;;;9.57;4.78;;;9.50;99.90;;;;;;5077119;28;20211;-64
2024/02/06 08:40:35;;;;;;;5.63;5.03;;;9.50;99.90;;;;;;5077069;28;20225;-64
2024/02/06 08:43:02;;;;;;;5.40;4.00;;;9.50;99.90;;;;;;5077942;28;20450;-61
2024/02/06 08:45:29;;;;;;;4.80;4.40;;;9.50;99.90;;;;;;5075446;28;20867;-64
2024/02/06 08:47:57;;;;;;;5.93;4.73;;;9.50;99.90;;;;;;5074768;28;20898;-62
2024/02/06 08:50:24;;;;;;;5.80;4.60;;;9.50;99.90;;;;;;5074928;28;20463;-64
2024/02/06 08:52:50;;;;;;;3.72;3.40;;;9.40;99.90;;;;;;5074555;28;20475;-64
2024/02/06 08:55:17;;;;;;;8.83;4.87;;;9.40;99.90;;;;;;5074581;28;20201;-66
2024/02/06 08:57:44;;;;;;;6.90;5.15;;;9.40;99.90;;;;;;5076134;28;20447;-64
2024/02/06 09:00:12;;;;;;;5.47;4.97;;;9.50;99.90;;;;;;5078470;28;20224;-62
2024/02/06 09:02:39;;;;;;;5.57;4.80;;;9.50;99.90;;;;;;5079174;28;20933;-63
2024/02/06 09:05:08;;;;;;;7.37;4.00;;;9.50;99.90;;;;;;5079020;28;20501;-63
2024/02/06 09:07:35;;;;;;;5.22;4.47;;;9.60;99.90;;;;;;5078482;28;20455;-64
2024/02/06 09:10:02;;;;;;;8.25;4.97;;;9.60;99.90;;;;;;5078108;28;20231;-64
2024/02/06 09:12:29;;;;;;;6.03;4.73;;;9.60;99.90;;;;;;5077326;28;20679;-64
2024/02/06 09:15:00;;;;;;;6.40;4.53;;;9.60;99.90;;;;;;5077662;28;20826;-64
2024/02/06 09:17:27;;;;;;;6.43;5.80;;;9.60;99.90;;;;;;5078275;28;20454;-66
2024/02/06 09:19:54;;;;;;;6.35;4.85;;;9.60;99.90;;;;;;5077667;28;20466;-63
2024/02/06 09:22:22;;;;;;;7.03;5.10;;;9.60;99.90;;;;;;5078543;28;20212;-64
2024/02/06 09:24:49;;;;;;;7.17;5.23;;;9.50;99.90;;;;;;5078404;28;20470;-63
2024/02/06 09:27:17;;;;;;;8.25;7.45;;;9.60;99.90;;;;;;5077663;28;20450;-64
2024/02/06 09:29:43;;;;;;;5.97;5.37;;;9.50;99.90;;;;;;5079446;28;20252;-64
2024/02/06 09:32:10;;;;;;;8.18;5.72;;;9.60;99.90;;;;;;5079347;28;20447;-63
2024/02/06 09:34:37;;;;;;;8.13;5.87;;;9.60;99.90;;;;;;5078361;28;20770;-65
2024/02/06 09:37:04;;;;;;;6.80;5.30;;;9.70;99.90;;;;;;5079061;28;20538;-64
2024/02/06 09:39:32;;;;;;;7.30;5.35;;;9.70;99.90;;;;;;5078656;28;20243;-65
2024/02/06 09:42:01;;;;;;;6.17;5.20;;;9.70;99.90;;;;;;5077859;28;20207;-64
2024/02/06 09:44:28;;;;;;;7.07;6.33;;;9.70;99.90;;;;;;5077820;28;20477;-64
2024/02/06 09:46:58;;;;;;;7.07;6.20;;;9.70;99.90;;;;;;5079061;28;20455;-64
2024/02/06 09:49:24;;;;;;;6.13;5.43;;;9.80;99.90;;;;;;5081171;28;20229;-65
2024/02/06 09:51:51;;;;;;;7.07;5.47;;;9.80;99.90;;;;;;5080306;28;20535;-64
2024/02/06 09:54:23;;;;;;;7.80;5.07;;;9.80;99.90;;;;;;5079354;28;20561;-64
2024/02/06 09:56:53;;;;;;;4.90;4.50;;;9.90;99.90;;;;;;5079296;28;20913;-65
2024/02/06 09:59:21;;;;;;;6.20;5.17;;;9.90;99.90;;;;;;5077080;28;20443;-65
2024/02/06 10:01:49;;;;;;;5.70;5.20;;;10.00;99.90;;;;;;5078273;28;20444;-63
2024/02/06 10:04:20;;;;;;;7.30;5.40;;;10.10;99.90;;;;;;5077896;28;20439;-63
2024/02/06 10:06:48;;;;;;;6.10;5.40;;;10.10;99.90;;;;;;5077438;28;20423;-64
2024/02/06 10:09:17;;;;;;;7.07;5.17;;;10.20;99.90;;;;;;5077238;28;20439;-65
2024/02/06 10:11:43;;;;;;;7.17;5.40;;;10.20;99.90;;;;;;5077331;28;20463;-65
2024/02/06 10:14:12;;;;;;;6.10;4.87;;;10.30;99.90;;;;;;5077782;28;20479;-64
2024/02/06 10:16:38;;;;;;;5.00;4.50;;;10.30;99.90;;;;;;5077883;28;20451;-63
2024/02/06 10:19:05;;;;;;;7.60;6.00;;;10.40;99.90;;;;;;5077472;28;20444;-64
2024/02/06 10:21:33;;;;;;;6.90;5.43;;;10.40;99.90;;;;;;5077173;28;20462;-65
2024/02/06 10:24:01;;;;;;;8.93;5.33;;;10.40;99.90;;;;;;5077159;28;20436;-65
2024/02/06 10:26:28;;;;;;;7.40;5.47;;;10.40;99.90;;;;;;5077211;28;20454;-63
2024/02/06 10:29:05;;;;;;;8.90;5.27;;;10.50;99.90;;;;;;5076968;28;20451;-64
2024/02/06 10:31:33;;;;;;;7.10;5.63;;;10.50;99.90;;;;;;5077354;28;20439;-65
2024/02/06 10:34:11;;;;;;;6.30;5.57;;;10.50;99.90;;;;;;5076156;28;20479;-64
2024/02/06 10:36:38;;;;;;;6.50;5.30;;;10.50;99.90;;;;;;5077709;28;20428;-64
2024/02/06 10:39:06;;;;;;;7.23;5.80;;;10.50;99.90;;;;;;5077444;28;20453;-65
2024/02/06 10:41:32;;;;;;;8.73;5.83;;;10.50;99.90;;;;;;5077118;28;20811;-64
2024/02/06 10:43:59;;;;;;;8.57;5.60;;;10.50;99.90;;;;;;5077188;28;20446;-62
2024/02/06 10:46:26;;;;;;;6.90;5.03;;;10.50;99.90;;;;;;5076589;28;20457;-64
2024/02/06 10:49:04;;;;;;;5.30;3.77;;;10.50;99.90;;;;;;5076242;28;20440;-65
2024/02/06 10:51:32;;;;;;;6.60;4.77;;;10.40;99.90;;;;;;5076351;28;20423;-64
2024/02/06 10:53:59;;;;;;;7.90;4.87;;;10.50;99.90;;;;;;5077117;28;20483;-64
2024/02/06 10:56:28;;;;;;;5.13;4.70;;;10.50;99.90;;;;;;5076878;28;20450;-65
2024/02/06 10:58:57;;;;;;;8.80;4.40;;;10.50;99.90;;;;;;5078385;28;20534;-63
2024/02/06 11:01:30;;;;;;;5.57;4.57;;;10.50;99.90;;;;;;5082425;28;20513;-64
2024/02/06 11:04:01;;;;;;;4.90;4.40;;;10.50;99.90;;;;;;5082804;28;20434;-65
2024/02/06 11:06:36;;;;;;;4.70;4.30;;;10.50;99.90;;;;;;5084218;28;20424;-65
2024/02/06 11:09:05;;;;;;;7.83;4.60;;;10.60;99.90;;;;;;5089541;28;20419;-65
2024/02/06 11:11:32;;;;;;;7.73;5.40;;;10.60;99.90;;;;;;5083147;28;20451;-65
2024/02/06 11:14:00;;;;;;;6.80;4.77;;;10.60;99.90;;;;;;5077451;28;21027;-65
2024/02/06 11:16:30;;;;;;;11.03;5.60;;;10.60;99.90;;;;;;5077315;28;20444;-64
2024/02/06 11:19:03;;;;;;;6.13;5.07;;;10.60;99.90;;;;;;5077770;28;20446;-65
2024/02/06 11:21:36;;;;;;;4.43;4.00;;;10.50;99.90;;;;;;5075637;28;20432;-65
2024/02/06 11:24:04;;;;;;;9.03;4.67;;;10.50;99.90;;;;;;5075925;28;20422;-64
2024/02/06 11:26:31;;;;;;;6.50;5.00;;;10.40;99.90;;;;;;5075836;28;20472;-63
2024/02/06 11:29:06;;;;;;;5.57;5.10;;;10.40;99.90;;;;;;5076326;28;20439;-65
2024/02/06 11:31:33;;;;;;;9.50;5.10;;;10.40;99.90;;;;;;5076341;28;20422;-65
2024/02/06 11:34:11;;;;;;;8.83;6.07;;;10.40;99.90;;;;;;5076757;28;20479;-63
2024/02/06 11:36:40;;;;;;;5.10;4.60;;;10.40;99.90;;;;;;5076485;28;20537;-64
2024/02/06 11:39:07;;;;;;;8.10;5.10;;;10.30;99.90;;;;;;5076219;28;20450;-64
2024/02/06 11:41:34;;;;;;;7.60;5.60;;;10.30;99.90;;;;;;5075985;28;20942;-63
2024/02/06 11:44:09;;;;;;;5.13;4.50;;;10.30;99.90;;;;;;5074942;28;20431;-63
2024/02/06 11:46:42;;;;;;;5.87;4.60;;;10.20;99.90;;;;;;5075337;28;20791;-63
2024/02/06 11:49:09;;;;;;;8.27;7.20;;;10.20;99.90;;;;;;5074935;28;20427;-65
2024/02/06 11:51:36;;;;;;;7.60;5.70;;;10.20;99.90;;;;;;5075297;28;20453;-62
2024/02/06 11:54:12;;;;;;;6.60;4.93;;;10.30;99.90;;;;;;5075253;28;20558;-65
2024/02/06 11:56:40;;;;;;;7.50;5.50;;;10.40;99.90;;;;;;5075339;28;20423;-64
2024/02/06 11:59:07;;;;;;;7.57;5.50;;;10.40;99.90;;;;;;5076684;28;20447;-64
2024/02/06 12:01:34;;;;;;;10.30;4.73;;;10.50;99.90;;;;;;5075463;28;20439;-64
2024/02/06 12:04:03;;;;;;;8.17;4.97;;;10.60;99.90;;;;;;5075387;28;20807;-65
2024/02/06 12:06:30;;;;;;;8.20;4.97;;;10.60;99.90;;;;;;5075584;28;20455;-64
2024/02/06 12:09:03;;;;;;;9.03;5.50;;;10.70;99.90;;;;;;5075925;28;20447;-64
2024/02/06 12:11:36;;;;;;;7.67;5.57;;;10.80;99.90;;;;;;5076366;28;20447;-64
2024/02/06 12:14:03;;;;;;;9.60;5.30;;;10.90;99.90;;;;;;5077241;28;20463;-63
2024/02/06 12:16:31;;;;;;;9.97;5.63;;;10.90;99.90;;;;;;5079457;28;20439;-64
2024/02/06 12:18:59;;;;;;;8.13;4.97;;;11.00;99.90;;;;;;5078091;28;20441;-65
2024/02/06 12:21:26;;;;;;;7.77;5.27;;;11.00;99.90;;;;;;5077194;28;20470;-63
2024/02/06 12:24:03;;;;;;;7.87;5.17;;;11.10;99.90;;;;;;5077211;28;20443;-65
2024/02/06 12:26:32;;;;;;;7.90;4.40;;;11.10;99.90;;;;;;5076716;28;20435;-64
2024/02/06 12:29:02;;;;;;;8.77;4.73;;;11.20;99.90;;;;;;5076608;28;20516;-64
2024/02/06 12:31:31;;;;;;;8.40;4.60;;;11.30;99.90;;;;;;5078537;28;20490;-64
2024/02/06 12:34:00;;;;;;;5.50;4.00;;;11.30;99.90;;;;;;5085177;28;20482;-63
2024/02/06 12:36:27;;;;;;;7.87;4.40;;;11.40;99.90;;;;;;5090756;28;20447;-68
2024/02/06 12:38:55;;;;;;;8.30;4.03;;;11.40;99.90;;;;;;5089965;28;20526;-65
2024/02/06 12:41:22;;;;;;;7.43;3.30;;;11.40;99.90;;;;;;5089339;28;20574;-63
2024/02/06 12:43:53;;;;;;;6.13;3.60;;;11.40;99.90;;;;;;5084942;28;20489;-66
2024/02/06 12:46:20;;;;;;;4.10;2.80;;;11.50;99.90;;;;;;5081513;28;20487;-64
2024/02/06 12:48:49;;;;;;;6.27;3.47;;;11.50;99.90;;;;;;5079896;28;20439;-65
2024/02/06 12:51:16;;;;;;;6.50;3.67;;;11.50;99.90;;;;;;5079670;28;20460;-64
2024/02/06 12:53:43;;;;;;;6.07;3.60;;;11.50;99.90;;;;;;5079249;28;20505;-64
2024/02/06 12:56:10;;;;;;;3.13;2.30;;;11.50;99.90;;;;;;5079012;28;20439;-62
2024/02/06 12:58:37;;;;;;;3.47;2.83;;;11.50;99.90;;;;;;5079454;28;20972;-63